sensor_id;sensor_type;location;lat;lon;timestamp;temperature;humidity
16635;DHT22;8431;52.458;9.998;2023-05-10T00:01:45;12.50;99.90
16635;DHT22;8431;52.458;9.998;2023-05-10T00:04:12;12.70;99.90
16635;DHT22;8431;52.458;9.998;2023-05-10T00:06:39;12.50;99.90
16635;DHT22;8431;52.458;9.998;2023-05-10T00:09:07;12.50;99.90
16635;DHT22;8431;52.458;9.998;2023-05-10T00:11:35;12.60;99.90
16635;DHT22;8431;52.458;9.998;2023-05-10T00:14:02;12.50;99.90
16635;DHT22;8431;52.458;9.998;2023-05-10T00:16:29;12.40;99.90
16635;DHT22;8431;52.458;9.998;2023-05-10T00:18:56;12.50;99.90
16635;DHT22;8431;52.458;9.998;2023-05-10T00:21:23;12.50;99.90
16635;DHT22;8431;52.458;9.998;2023-05-10T00:23:50;12.40;99.90
16635;DHT22;8431;52.458;9.998;2023-05-10T00:26:17;12.20;99.90
16635;DHT22;8431;52.458;9.998;2023-05-10T00:28:46;12.10;99.90
16635;DHT22;8431;52.458;9.998;2023-05-10T00:31:13;12.10;99.90
16635;DHT22;8431;52.458;9.998;2023-05-10T00:33:41;12.00;99.90
16635;DHT22;8431;52.458;9.998;2023-05-10T00:36:19;12.00;99.90
16635;DHT22;8431;52.458;9.998;2023-05-10T00:38:46;12.00;99.90
16635;DHT22;8431;52.458;9.998;2023-05-10T00:41:13;12.00;99.90
16635;DHT22;8431;52.458;9.998;2023-05-10T00:43:41;11.90;99.90
16635;DHT22;8431;52.458;9.998;2023-05-10T00:46:09;12.00;99.90
16635;DHT22;8431;52.458;9.998;2023-05-10T00:48:36;11.90;99.90
16635;DHT22;8431;52.458;9.998;2023-05-10T00:51:05;11.80;99.90
16635;DHT22;8431;52.458;9.998;2023-05-10T00:53:32;11.80;99.90
16635;DHT22;8431;52.458;9.998;2023-05-10T00:56:00;11.70;99.90
16635;DHT22;8431;52.458;9.998;2023-05-10T00:58:28;11.70;99.90
16635;DHT22;8431;52.458;9.998;2023-05-10T01:00:56;11.60;99.90
16635;DHT22;8431;52.458;9.998;2023-05-10T01:03:26;11.60;99.90
16635;DHT22;8431;52.458;9.998;2023-05-10T01:05:53;11.50;99.90
16635;DHT22;8431;52.458;9.998;2023-05-10T01:08:21;11.50;99.90
16635;DHT22;8431;52.458;9.998;2023-05-10T01:10:48;11.50;99.90
16635;DHT22;8431;52.458;9.998;2023-05-10T01:13:18;11.60;99.90
16635;DHT22;8431;52.458;9.998;2023-05-10T01:15:50;11.50;99.90
16635;DHT22;8431;52.458;9.998;2023-05-10T01:18:19;11.40;99.90
16635;DHT22;8431;52.458;9.998;2023-05-10T01:20:56;11.40;99.90
16635;DHT22;8431;52.458;9.998;2023-05-10T01:23:45;11.50;99.90
16635;DHT22;8431;52.458;9.998;2023-05-10T01:26:47;11.60;99.90
16635;DHT22;8431;52.458;9.998;2023-05-10T01:29:53;11.50;99.90
16635;DHT22;8431;52.458;9.998;2023-05-10T01:32:32;11.60;99.90
16635;DHT22;8431;52.458;9.998;2023-05-10T01:35:05;11.60;99.90
16635;DHT22;8431;52.458;9.998;2023-05-10T01:37:42;11.60;99.90
16635;DHT22;8431;52.458;9.998;2023-05-10T01:40:19;11.60;99.90
16635;DHT22;8431;52.458;9.998;2023-05-10T01:42:53;11.60;99.90
16635;DHT22;8431;52.458;9.998;2023-05-10T01:45:27;11.60;99.90
16635;DHT22;8431;52.458;9.998;2023-05-10T01:48:03;11.60;99.90
16635;DHT22;8431;52.458;9.998;2023-05-10T01:50:35;11.50;99.90
16635;DHT22;8431;52.458;9.998;2023-05-10T01:53:03;11.50;99.90
16635;DHT22;8431;52.458;9.998;2023-05-10T01:55:35;11.50;99.90
16635;DHT22;8431;52.458;9.998;2023-05-10T01:58:06;11.60;99.90
16635;DHT22;8431;52.458;9.998;2023-05-10T02:00:35;11.50;99.90
16635;DHT22;8431;52.458;9.998;2023-05-10T02:03:06;11.50;99.90
16635;DHT22;8431;52.458;9.998;2023-05-10T02:05:36;11.40;99.90
16635;DHT22;8431;52.458;9.998;2023-05-10T02:08:06;11.50;99.90
16635;DHT22;8431;52.458;9.998;2023-05-10T02:10:34;11.40;99.90
16635;DHT22;8431;52.458;9.998;2023-05-10T02:13:02;11.40;99.90
16635;DHT22;8431;52.458;9.998;2023-05-10T02:15:30;11.30;99.90
16635;DHT22;8431;52.458;9.998;2023-05-10T02:17:58;11.30;99.90
16635;DHT22;8431;52.458;9.998;2023-05-10T02:20:28;11.20;99.90
16635;DHT22;8431;52.458;9.998;2023-05-10T02:22:58;11.20;99.90
16635;DHT22;8431;52.458;9.998;2023-05-10T02:25:27;11.20;99.90
16635;DHT22;8431;52.458;9.998;2023-05-10T02:27:56;11.10;99.90
16635;DHT22;8431;52.458;9.998;2023-05-10T02:30:24;11.20;99.90
16635;DHT22;8431;52.458;9.998;2023-05-10T02:32:52;11.20;99.90
16635;DHT22;8431;52.458;9.998;2023-05-10T02:35:20;11.20;99.90
16635;DHT22;8431;52.458;9.998;2023-05-10T02:37:49;11.10;99.90
16635;DHT22;8431;52.458;9.998;2023-05-10T02:40:20;11.10;99.90
16635;DHT22;8431;52.458;9.998;2023-05-10T02:42:48;11.20;99.90
16635;DHT22;8431;52.458;9.998;2023-05-10T02:45:21;11.10;99.90
16635;DHT22;8431;52.458;9.998;2023-05-10T02:47:49;11.10;99.90
16635;DHT22;8431;52.458;9.998;2023-05-10T02:50:16;11.10;99.90
16635;DHT22;8431;52.458;9.998;2023-05-10T02:52:46;11.10;99.90
16635;DHT22;8431;52.458;9.998;2023-05-10T02:55:16;11.20;99.90
16635;DHT22;8431;52.458;9.998;2023-05-10T02:57:51;11.10;99.90
16635;DHT22;8431;52.458;9.998;2023-05-10T03:00:19;11.10;99.90
16635;DHT22;8431;52.458;9.998;2023-05-10T03:02:46;11.10;99.90
16635;DHT22;8431;52.458;9.998;2023-05-10T03:05:13;11.00;99.90
16635;DHT22;8431;52.458;9.998;2023-05-10T03:07:40;11.00;99.90
16635;DHT22;8431;52.458;9.998;2023-05-10T03:10:08;11.00;99.90
16635;DHT22;8431;52.458;9.998;2023-05-10T03:12:52;11.00;99.90
16635;DHT22;8431;52.458;9.998;2023-05-10T03:15:25;10.90;99.90
16635;DHT22;8431;52.458;9.998;2023-05-10T03:18:00;10.80;99.90
16635;DHT22;8431;52.458;9.998;2023-05-10T03:20:33;10.90;99.90
16635;DHT22;8431;52.458;9.998;2023-05-10T03:23:13;10.80;99.90
16635;DHT22;8431;52.458;9.998;2023-05-10T03:25:48;10.90;99.90
16635;DHT22;8431;52.458;9.998;2023-05-10T03:28:18;10.80;99.90
16635;DHT22;8431;52.458;9.998;2023-05-10T03:30:46;10.80;99.90
16635;DHT22;8431;52.458;9.998;2023-05-10T03:33:13;10.90;99.90
16635;DHT22;8431;52.458;9.998;2023-05-10T03:35:41;10.90;99.90
16635;DHT22;8431;52.458;9.998;2023-05-10T03:38:09;10.90;99.90
16635;DHT22;8431;52.458;9.998;2023-05-10T03:40:36;10.90;99.90
16635;DHT22;8431;52.458;9.998;2023-05-10T03:43:03;11.00;99.90
16635;DHT22;8431;52.458;9.998;2023-05-10T03:45:32;11.00;99.90
16635;DHT22;8431;52.458;9.998;2023-05-10T03:47:59;11.00;99.90
16635;DHT22;8431;52.458;9.998;2023-05-10T03:50:26;11.00;99.90
16635;DHT22;8431;52.458;9.998;2023-05-10T03:52:53;11.10;99.90
16635;DHT22;8431;52.458;9.998;2023-05-10T03:55:20;11.10;99.90
16635;DHT22;8431;52.458;9.998;2023-05-10T03:57:47;11.20;99.90
16635;DHT22;8431;52.458;9.998;2023-05-10T04:00:15;11.30;99.90
16635;DHT22;8431;52.458;9.998;2023-05-10T04:02:44;11.40;99.90
16635;DHT22;8431;52.458;9.998;2023-05-10T04:05:11;11.40;99.90
16635;DHT22;8431;52.458;9.998;2023-05-10T04:07:38;11.50;99.90
16635;DHT22;8431;52.458;9.998;2023-05-10T04:10:06;11.50;99.90
16635;DHT22;8431;52.458;9.998;2023-05-10T04:12:33;11.50;99.90
16635;DHT22;8431;52.458;9.998;2023-05-10T04:15:01;11.50;99.90
16635;DHT22;8431;52.458;9.998;2023-05-10T04:17:28;11.60;99.90
16635;DHT22;8431;52.458;9.998;2023-05-10T04:19:56;11.60;99.90
16635;DHT22;8431;52.458;9.998;2023-05-10T04:22:23;11.70;99.90
16635;DHT22;8431;52.458;9.998;2023-05-10T04:24:50;11.70;99.90
16635;DHT22;8431;52.458;9.998;2023-05-10T04:27:17;11.70;99.90
16635;DHT22;8431;52.458;9.998;2023-05-10T04:29:44;11.70;99.90
16635;DHT22;8431;52.458;9.998;2023-05-10T04:32:11;11.80;99.90
16635;DHT22;8431;52.458;9.998;2023-05-10T04:34:38;11.80;99.90
16635;DHT22;8431;52.458;9.998;2023-05-10T04:37:06;11.80;99.90
16635;DHT22;8431;52.458;9.998;2023-05-10T04:39:33;11.80;99.90
16635;DHT22;8431;52.458;9.998;2023-05-10T04:42:00;11.80;99.90
16635;DHT22;8431;52.458;9.998;2023-05-10T04:44:29;11.90;99.90
16635;DHT22;8431;52.458;9.998;2023-05-10T04:46:56;11.90;99.90
16635;DHT22;8431;52.458;9.998;2023-05-10T04:49:23;11.90;99.90
16635;DHT22;8431;52.458;9.998;2023-05-10T04:51:50;11.90;99.90
16635;DHT22;8431;52.458;9.998;2023-05-10T04:54:18;11.90;99.90
16635;DHT22;8431;52.458;9.998;2023-05-10T04:56:45;11.90;99.90
16635;DHT22;8431;52.458;9.998;2023-05-10T04:59:12;11.90;99.90
16635;DHT22;8431;52.458;9.998;2023-05-10T05:01:39;11.90;99.90
16635;DHT22;8431;52.458;9.998;2023-05-10T05:04:06;11.90;99.90
16635;DHT22;8431;52.458;9.998;2023-05-10T05:06:33;11.90;99.90
16635;DHT22;8431;52.458;9.998;2023-05-10T05:09:00;11.80;99.90
16635;DHT22;8431;52.458;9.998;2023-05-10T05:11:29;11.80;99.90
16635;DHT22;8431;52.458;9.998;2023-05-10T05:13:56;11.90;99.90
16635;DHT22;8431;52.458;9.998;2023-05-10T05:16:24;11.80;99.90
16635;DHT22;8431;52.458;9.998;2023-05-10T05:18:52;11.80;99.90
16635;DHT22;8431;52.458;9.998;2023-05-10T05:21:19;11.90;99.90
16635;DHT22;8431;52.458;9.998;2023-05-10T05:23:47;11.80;99.90
16635;DHT22;8431;52.458;9.998;2023-05-10T05:26:14;11.90;99.90
16635;DHT22;8431;52.458;9.998;2023-05-10T05:28:42;11.80;99.90
16635;DHT22;8431;52.458;9.998;2023-05-10T05:31:10;11.80;99.90
16635;DHT22;8431;52.458;9.998;2023-05-10T05:33:37;11.70;99.90
16635;DHT22;8431;52.458;9.998;2023-05-10T05:36:05;11.70;99.90
16635;DHT22;8431;52.458;9.998;2023-05-10T05:38:32;11.70;99.90
16635;DHT22;8431;52.458;9.998;2023-05-10T05:40:59;11.80;99.90
16635;DHT22;8431;52.458;9.998;2023-05-10T05:43:26;11.90;99.90
16635;DHT22;8431;52.458;9.998;2023-05-10T05:45:54;11.90;99.90
16635;DHT22;8431;52.458;9.998;2023-05-10T05:48:24;12.10;99.90
16635;DHT22;8431;52.458;9.998;2023-05-10T05:50:54;12.10;99.90
16635;DHT22;8431;52.458;9.998;2023-05-10T05:53:22;12.10;99.90
16635;DHT22;8431;52.458;9.998;2023-05-10T05:55:52;12.10;99.90
16635;DHT22;8431;52.458;9.998;2023-05-10T05:58:20;12.10;99.90
16635;DHT22;8431;52.458;9.998;2023-05-10T06:00:47;12.20;99.90
16635;DHT22;8431;52.458;9.998;2023-05-10T06:03:15;12.10;99.90
16635;DHT22;8431;52.458;9.998;2023-05-10T06:05:42;12.20;99.90
16635;DHT22;8431;52.458;9.998;2023-05-10T06:08:09;12.40;99.90
16635;DHT22;8431;52.458;9.998;2023-05-10T06:10:36;12.50;99.90
16635;DHT22;8431;52.458;9.998;2023-05-10T06:13:03;12.60;99.90
16635;DHT22;8431;52.458;9.998;2023-05-10T06:15:33;12.70;99.90
16635;DHT22;8431;52.458;9.998;2023-05-10T06:18:00;12.70;99.90
16635;DHT22;8431;52.458;9.998;2023-05-10T06:20:29;12.60;99.90
16635;DHT22;8431;52.458;9.998;2023-05-10T06:22:57;12.60;99.90
16635;DHT22;8431;52.458;9.998;2023-05-10T06:25:24;12.80;99.90
16635;DHT22;8431;52.458;9.998;2023-05-10T06:27:51;12.70;99.90
16635;DHT22;8431;52.458;9.998;2023-05-10T06:30:23;12.80;99.90
16635;DHT22;8431;52.458;9.998;2023-05-10T06:32:53;12.80;99.90
16635;DHT22;8431;52.458;9.998;2023-05-10T06:35:20;13.00;99.90
16635;DHT22;8431;52.458;9.998;2023-05-10T06:37:48;13.10;99.90
16635;DHT22;8431;52.458;9.998;2023-05-10T06:40:16;13.00;99.90
16635;DHT22;8431;52.458;9.998;2023-05-10T06:42:43;12.90;99.90
16635;DHT22;8431;52.458;9.998;2023-05-10T06:45:11;12.80;99.90
16635;DHT22;8431;52.458;9.998;2023-05-10T06:47:38;13.00;99.90
16635;DHT22;8431;52.458;9.998;2023-05-10T06:50:07;12.80;99.90
16635;DHT22;8431;52.458;9.998;2023-05-10T06:52:34;12.90;99.90
16635;DHT22;8431;52.458;9.998;2023-05-10T06:55:03;13.00;99.90
16635;DHT22;8431;52.458;9.998;2023-05-10T06:57:30;12.90;99.90
16635;DHT22;8431;52.458;9.998;2023-05-10T06:59:57;12.90;99.90
16635;DHT22;8431;52.458;9.998;2023-05-10T07:02:24;13.00;99.90
16635;DHT22;8431;52.458;9.998;2023-05-10T07:04:51;13.10;99.90
16635;DHT22;8431;52.458;9.998;2023-05-10T07:07:18;13.00;99.90
16635;DHT22;8431;52.458;9.998;2023-05-10T07:09:45;13.10;99.90
16635;DHT22;8431;52.458;9.998;2023-05-10T07:12:14;13.20;99.90
16635;DHT22;8431;52.458;9.998;2023-05-10T07:14:41;13.10;99.90
16635;DHT22;8431;52.458;9.998;2023-05-10T07:17:08;13.20;99.90
16635;DHT22;8431;52.458;9.998;2023-05-10T07:19:35;13.10;99.90
16635;DHT22;8431;52.458;9.998;2023-05-10T07:22:02;13.20;99.90
16635;DHT22;8431;52.458;9.998;2023-05-10T07:24:29;13.20;99.90
16635;DHT22;8431;52.458;9.998;2023-05-10T07:26:56;13.20;99.90
16635;DHT22;8431;52.458;9.998;2023-05-10T07:29:25;13.10;99.90
16635;DHT22;8431;52.458;9.998;2023-05-10T07:31:54;13.10;99.90
16635;DHT22;8431;52.458;9.998;2023-05-10T07:34:38;13.10;99.90
16635;DHT22;8431;52.458;9.998;2023-05-10T07:37:06;13.20;99.90
16635;DHT22;8431;52.458;9.998;2023-05-10T07:39:34;13.30;99.90
16635;DHT22;8431;52.458;9.998;2023-05-10T07:42:01;13.30;99.90
16635;DHT22;8431;52.458;9.998;2023-05-10T07:44:29;13.40;99.90
16635;DHT22;8431;52.458;9.998;2023-05-10T07:46:57;13.60;99.90
16635;DHT22;8431;52.458;9.998;2023-05-10T07:49:24;13.50;99.90
16635;DHT22;8431;52.458;9.998;2023-05-10T07:51:51;13.60;99.90
16635;DHT22;8431;52.458;9.998;2023-05-10T07:54:17;13.40;99.90
16635;DHT22;8431;52.458;9.998;2023-05-10T07:56:44;13.40;99.90
16635;DHT22;8431;52.458;9.998;2023-05-10T07:59:16;13.50;99.90
16635;DHT22;8431;52.458;9.998;2023-05-10T08:01:45;13.70;99.90
16635;DHT22;8431;52.458;9.998;2023-05-10T08:04:11;13.60;99.90
16635;DHT22;8431;52.458;9.998;2023-05-10T08:06:39;13.70;99.90
16635;DHT22;8431;52.458;9.998;2023-05-10T08:09:06;13.70;99.90
16635;DHT22;8431;52.458;9.998;2023-05-10T08:11:33;13.80;99.90
16635;DHT22;8431;52.458;9.998;2023-05-10T08:14:00;14.00;99.90
16635;DHT22;8431;52.458;9.998;2023-05-10T08:16:30;14.10;99.90
16635;DHT22;8431;52.458;9.998;2023-05-10T08:18:59;14.20;99.90
16635;DHT22;8431;52.458;9.998;2023-05-10T08:21:26;14.10;99.90
16635;DHT22;8431;52.458;9.998;2023-05-10T08:23:53;13.90;99.90
16635;DHT22;8431;52.458;9.998;2023-05-10T08:26:20;13.80;99.90
16635;DHT22;8431;52.458;9.998;2023-05-10T08:28:47;13.90;99.90
16635;DHT22;8431;52.458;9.998;2023-05-10T08:31:15;13.90;99.90
16635;DHT22;8431;52.458;9.998;2023-05-10T08:33:42;13.40;99.90
16635;DHT22;8431;52.458;9.998;2023-05-10T08:36:11;13.30;99.90
16635;DHT22;8431;52.458;9.998;2023-05-10T08:38:39;13.40;99.90
16635;DHT22;8431;52.458;9.998;2023-05-10T08:41:06;13.40;99.90
16635;DHT22;8431;52.458;9.998;2023-05-10T08:43:36;13.40;99.90
16635;DHT22;8431;52.458;9.998;2023-05-10T08:46:05;13.60;99.90
16635;DHT22;8431;52.458;9.998;2023-05-10T08:48:34;13.90;99.90
16635;DHT22;8431;52.458;9.998;2023-05-10T08:51:03;13.80;99.90
16635;DHT22;8431;52.458;9.998;2023-05-10T08:53:33;13.70;99.90
16635;DHT22;8431;52.458;9.998;2023-05-10T08:56:02;13.70;99.90
16635;DHT22;8431;52.458;9.998;2023-05-10T08:58:30;14.10;99.90
16635;DHT22;8431;52.458;9.998;2023-05-10T09:00:58;14.20;99.90
16635;DHT22;8431;52.458;9.998;2023-05-10T09:03:25;14.30;99.90
16635;DHT22;8431;52.458;9.998;2023-05-10T09:05:53;14.10;99.90
16635;DHT22;8431;52.458;9.998;2023-05-10T09:08:21;14.30;99.90
16635;DHT22;8431;52.458;9.998;2023-05-10T09:10:52;14.40;99.90
16635;DHT22;8431;52.458;9.998;2023-05-10T09:13:21;14.50;99.90
16635;DHT22;8431;52.458;9.998;2023-05-10T09:15:48;14.30;99.90
16635;DHT22;8431;52.458;9.998;2023-05-10T09:18:15;14.30;99.90
16635;DHT22;8431;52.458;9.998;2023-05-10T09:20:42;14.30;99.90
16635;DHT22;8431;52.458;9.998;2023-05-10T09:23:09;14.00;99.90
16635;DHT22;8431;52.458;9.998;2023-05-10T09:25:36;14.00;99.90
16635;DHT22;8431;52.458;9.998;2023-05-10T09:28:08;13.90;99.90
16635;DHT22;8431;52.458;9.998;2023-05-10T09:30:36;13.90;99.90
16635;DHT22;8431;52.458;9.998;2023-05-10T09:33:03;13.70;99.90
16635;DHT22;8431;52.458;9.998;2023-05-10T09:35:32;13.70;99.90
16635;DHT22;8431;52.458;9.998;2023-05-10T09:38:00;13.70;99.90
16635;DHT22;8431;52.458;9.998;2023-05-10T09:40:28;14.00;99.90
16635;DHT22;8431;52.458;9.998;2023-05-10T09:42:57;13.80;99.90
16635;DHT22;8431;52.458;9.998;2023-05-10T09:45:26;13.90;99.90
16635;DHT22;8431;52.458;9.998;2023-05-10T09:47:54;13.90;99.90
16635;DHT22;8431;52.458;9.998;2023-05-10T09:50:21;13.90;99.90
16635;DHT22;8431;52.458;9.998;2023-05-10T09:52:50;14.00;99.90
16635;DHT22;8431;52.458;9.998;2023-05-10T09:55:18;14.00;99.90
16635;DHT22;8431;52.458;9.998;2023-05-10T09:57:46;14.10;99.90
16635;DHT22;8431;52.458;9.998;2023-05-10T10:00:18;14.00;99.90
16635;DHT22;8431;52.458;9.998;2023-05-10T10:02:54;14.10;99.90
16635;DHT22;8431;52.458;9.998;2023-05-10T10:05:28;13.80;99.90
16635;DHT22;8431;52.458;9.998;2023-05-10T10:07:56;14.10;99.90
16635;DHT22;8431;52.458;9.998;2023-05-10T10:10:24;14.20;99.90
16635;DHT22;8431;52.458;9.998;2023-05-10T10:12:51;14.40;99.90
16635;DHT22;8431;52.458;9.998;2023-05-10T10:15:18;14.30;99.90
16635;DHT22;8431;52.458;9.998;2023-05-10T10:17:45;14.40;99.90
16635;DHT22;8431;52.458;9.998;2023-05-10T10:20:14;14.10;99.90
16635;DHT22;8431;52.458;9.998;2023-05-10T10:22:42;14.10;99.90
16635;DHT22;8431;52.458;9.998;2023-05-10T10:25:11;14.30;99.90
16635;DHT22;8431;52.458;9.998;2023-05-10T10:27:45;14.10;99.90
16635;DHT22;8431;52.458;9.998;2023-05-10T10:30:23;14.10;99.90
16635;DHT22;8431;52.458;9.998;2023-05-10T10:35:58;14.40;99.90
16635;DHT22;8431;52.458;9.998;2023-05-10T10:38:36;14.60;99.90
16635;DHT22;8431;52.458;9.998;2023-05-10T10:41:32;14.60;99.90
16635;DHT22;8431;52.458;9.998;2023-05-10T10:44:32;15.00;99.90
16635;DHT22;8431;52.458;9.998;2023-05-10T10:47:02;14.70;99.90
16635;DHT22;8431;52.458;9.998;2023-05-10T10:49:32;14.90;99.90
16635;DHT22;8431;52.458;9.998;2023-05-10T10:52:20;14.90;99.90
16635;DHT22;8431;52.458;9.998;2023-05-10T10:54:50;15.10;99.90
16635;DHT22;8431;52.458;9.998;2023-05-10T10:57:19;14.80;99.90
16635;DHT22;8431;52.458;9.998;2023-05-10T10:59:49;14.80;99.90
16635;DHT22;8431;52.458;9.998;2023-05-10T11:02:43;14.80;99.90
16635;DHT22;8431;52.458;9.998;2023-05-10T11:08:12;14.90;99.90
16635;DHT22;8431;52.458;9.998;2023-05-10T11:10:48;15.00;99.90
16635;DHT22;8431;52.458;9.998;2023-05-10T11:13:27;15.00;99.90
16635;DHT22;8431;52.458;9.998;2023-05-10T11:15:55;14.90;99.90
16635;DHT22;8431;52.458;9.998;2023-05-10T11:18:28;15.30;99.90
16635;DHT22;8431;52.458;9.998;2023-05-10T11:20:57;15.10;99.90
16635;DHT22;8431;52.458;9.998;2023-05-10T11:23:32;15.40;99.90
16635;DHT22;8431;52.458;9.998;2023-05-10T11:25:59;15.60;99.90
16635;DHT22;8431;52.458;9.998;2023-05-10T11:28:27;15.70;99.90
16635;DHT22;8431;52.458;9.998;2023-05-10T11:30:54;15.50;99.90
16635;DHT22;8431;52.458;9.998;2023-05-10T11:33:21;15.90;99.90
16635;DHT22;8431;52.458;9.998;2023-05-10T11:35:48;15.60;99.90
16635;DHT22;8431;52.458;9.998;2023-05-10T11:38:22;15.90;99.90
16635;DHT22;8431;52.458;9.998;2023-05-10T11:40:51;15.80;99.90
16635;DHT22;8431;52.458;9.998;2023-05-10T11:43:23;16.20;99.90
16635;DHT22;8431;52.458;9.998;2023-05-10T11:45:54;16.60;99.90
16635;DHT22;8431;52.458;9.998;2023-05-10T11:48:21;16.60;99.90
16635;DHT22;8431;52.458;9.998;2023-05-10T11:50:49;16.40;99.90
16635;DHT22;8431;52.458;9.998;2023-05-10T11:53:16;16.40;99.90
16635;DHT22;8431;52.458;9.998;2023-05-10T11:55:43;16.00;99.90
16635;DHT22;8431;52.458;9.998;2023-05-10T11:58:24;15.90;99.90
16635;DHT22;8431;52.458;9.998;2023-05-10T12:00:55;16.10;99.90
16635;DHT22;8431;52.458;9.998;2023-05-10T12:03:22;16.70;99.90
16635;DHT22;8431;52.458;9.998;2023-05-10T12:05:50;17.10;99.90
16635;DHT22;8431;52.458;9.998;2023-05-10T12:08:21;17.20;99.90
16635;DHT22;8431;52.458;9.998;2023-05-10T12:10:51;17.50;99.90
16635;DHT22;8431;52.458;9.998;2023-05-10T12:13:26;17.50;99.90
16635;DHT22;8431;52.458;9.998;2023-05-10T12:15:53;17.50;99.90
16635;DHT22;8431;52.458;9.998;2023-05-10T12:18:23;17.40;99.90
16635;DHT22;8431;52.458;9.998;2023-05-10T12:20:54;17.20;99.90
16635;DHT22;8431;52.458;9.998;2023-05-10T12:23:29;17.80;99.90
16635;DHT22;8431;52.458;9.998;2023-05-10T12:26:02;17.80;99.90
16635;DHT22;8431;52.458;9.998;2023-05-10T12:28:31;18.00;99.90
16635;DHT22;8431;52.458;9.998;2023-05-10T12:30:59;17.90;99.90
16635;DHT22;8431;52.458;9.998;2023-05-10T12:33:26;17.80;99.90
16635;DHT22;8431;52.458;9.998;2023-05-10T12:35:54;17.70;99.90
16635;DHT22;8431;52.458;9.998;2023-05-10T12:38:29;17.90;99.90
16635;DHT22;8431;52.458;9.998;2023-05-10T12:40:57;17.80;99.90
16635;DHT22;8431;52.458;9.998;2023-05-10T12:43:28;18.00;99.90
16635;DHT22;8431;52.458;9.998;2023-05-10T12:45:56;18.30;99.90
16635;DHT22;8431;52.458;9.998;2023-05-10T12:48:28;18.60;99.90
16635;DHT22;8431;52.458;9.998;2023-05-10T12:50:56;19.00;99.90
16635;DHT22;8431;52.458;9.998;2023-05-10T12:53:23;18.80;99.90
16635;DHT22;8431;52.458;9.998;2023-05-10T12:55:50;18.80;99.90
16635;DHT22;8431;52.458;9.998;2023-05-10T12:58:18;19.10;99.90
16635;DHT22;8431;52.458;9.998;2023-05-10T13:00:50;19.00;99.90
16635;DHT22;8431;52.458;9.998;2023-05-10T13:03:28;18.90;99.90
16635;DHT22;8431;52.458;9.998;2023-05-10T13:05:56;18.90;99.90
16635;DHT22;8431;52.458;9.998;2023-05-10T13:08:24;19.00;99.90
16635;DHT22;8431;52.458;9.998;2023-05-10T13:11:03;18.80;99.90
16635;DHT22;8431;52.458;9.998;2023-05-10T13:13:33;18.70;99.90
16635;DHT22;8431;52.458;9.998;2023-05-10T13:16:00;18.60;99.90
16635;DHT22;8431;52.458;9.998;2023-05-10T13:18:29;19.20;99.90
16635;DHT22;8431;52.458;9.998;2023-05-10T13:20:57;19.40;99.90
16635;DHT22;8431;52.458;9.998;2023-05-10T13:23:24;19.00;99.90
16635;DHT22;8431;52.458;9.998;2023-05-10T13:25:51;19.20;99.90
16635;DHT22;8431;52.458;9.998;2023-05-10T13:28:18;19.70;99.90
16635;DHT22;8431;52.458;9.998;2023-05-10T13:30:45;19.50;99.90
16635;DHT22;8431;52.458;9.998;2023-05-10T13:33:12;19.60;99.90
16635;DHT22;8431;52.458;9.998;2023-05-10T13:35:41;19.00;99.90
16635;DHT22;8431;52.458;9.998;2023-05-10T13:38:08;19.20;99.90
16635;DHT22;8431;52.458;9.998;2023-05-10T13:40:35;18.80;99.90
16635;DHT22;8431;52.458;9.998;2023-05-10T13:43:07;18.40;99.90
16635;DHT22;8431;52.458;9.998;2023-05-10T13:45:34;17.90;99.90
16635;DHT22;8431;52.458;9.998;2023-05-10T13:48:01;17.60;99.90
16635;DHT22;8431;52.458;9.998;2023-05-10T13:53:54;17.00;99.90
16635;DHT22;8431;52.458;9.998;2023-05-10T13:56:22;16.70;99.90
16635;DHT22;8431;52.458;9.998;2023-05-10T13:58:49;16.80;99.90
16635;DHT22;8431;52.458;9.998;2023-05-10T14:01:17;16.80;99.90
16635;DHT22;8431;52.458;9.998;2023-05-10T14:03:44;16.80;99.90
16635;DHT22;8431;52.458;9.998;2023-05-10T14:06:12;16.40;99.90
16635;DHT22;8431;52.458;9.998;2023-05-10T14:08:43;15.60;99.90
16635;DHT22;8431;52.458;9.998;2023-05-10T14:11:12;15.00;99.90
16635;DHT22;8431;52.458;9.998;2023-05-10T14:13:40;14.90;99.90
16635;DHT22;8431;52.458;9.998;2023-05-10T14:16:07;15.00;99.90
16635;DHT22;8431;52.458;9.998;2023-05-10T14:18:35;15.00;99.90
16635;DHT22;8431;52.458;9.998;2023-05-10T14:21:03;14.90;99.90
16635;DHT22;8431;52.458;9.998;2023-05-10T14:23:33;14.60;99.90
16635;DHT22;8431;52.458;9.998;2023-05-10T14:26:00;14.50;99.90
16635;DHT22;8431;52.458;9.998;2023-05-10T14:28:29;14.40;99.90
16635;DHT22;8431;52.458;9.998;2023-05-10T14:30:56;14.20;99.90
16635;DHT22;8431;52.458;9.998;2023-05-10T14:33:23;14.10;99.90
16635;DHT22;8431;52.458;9.998;2023-05-10T14:35:50;14.00;99.90
16635;DHT22;8431;52.458;9.998;2023-05-10T14:38:17;13.70;99.90
16635;DHT22;8431;52.458;9.998;2023-05-10T14:40:45;13.50;99.90
16635;DHT22;8431;52.458;9.998;2023-05-10T14:43:12;13.50;99.90
16635;DHT22;8431;52.458;9.998;2023-05-10T14:45:40;13.60;99.90
16635;DHT22;8431;52.458;9.998;2023-05-10T14:48:07;13.40;99.90
16635;DHT22;8431;52.458;9.998;2023-05-10T14:50:37;13.40;99.90
16635;DHT22;8431;52.458;9.998;2023-05-10T14:53:05;13.40;99.90
16635;DHT22;8431;52.458;9.998;2023-05-10T14:55:32;13.40;99.90
16635;DHT22;8431;52.458;9.998;2023-05-10T14:58:02;13.30;99.90
16635;DHT22;8431;52.458;9.998;2023-05-10T15:00:29;13.30;99.90
16635;DHT22;8431;52.458;9.998;2023-05-10T15:02:59;13.30;99.90
16635;DHT22;8431;52.458;9.998;2023-05-10T15:05:27;13.20;99.90
16635;DHT22;8431;52.458;9.998;2023-05-10T15:08:09;13.20;99.90
16635;DHT22;8431;52.458;9.998;2023-05-10T15:10:38;13.30;99.90
16635;DHT22;8431;52.458;9.998;2023-05-10T15:13:05;13.30;99.90
16635;DHT22;8431;52.458;9.998;2023-05-10T15:15:37;13.40;99.90
16635;DHT22;8431;52.458;9.998;2023-05-10T15:18:05;13.50;99.90
16635;DHT22;8431;52.458;9.998;2023-05-10T15:20:37;13.50;99.90
16635;DHT22;8431;52.458;9.998;2023-05-10T15:23:05;13.50;99.90
16635;DHT22;8431;52.458;9.998;2023-05-10T15:25:32;13.60;99.90
16635;DHT22;8431;52.458;9.998;2023-05-10T15:28:00;13.60;99.90
16635;DHT22;8431;52.458;9.998;2023-05-10T15:30:28;13.70;99.90
16635;DHT22;8431;52.458;9.998;2023-05-10T15:32:55;13.70;99.90
16635;DHT22;8431;52.458;9.998;2023-05-10T15:35:23;13.70;99.90
16635;DHT22;8431;52.458;9.998;2023-05-10T15:37:55;13.80;99.90
16635;DHT22;8431;52.458;9.998;2023-05-10T15:40:22;13.90;99.90
16635;DHT22;8431;52.458;9.998;2023-05-10T15:42:53;14.00;99.90
16635;DHT22;8431;52.458;9.998;2023-05-10T15:45:20;14.10;99.90
16635;DHT22;8431;52.458;9.998;2023-05-10T15:47:47;14.20;99.90
16635;DHT22;8431;52.458;9.998;2023-05-10T15:50:15;14.30;99.90
16635;DHT22;8431;52.458;9.998;2023-05-10T15:52:44;14.40;99.90
16635;DHT22;8431;52.458;9.998;2023-05-10T15:55:11;14.40;99.90
16635;DHT22;8431;52.458;9.998;2023-05-10T15:57:39;14.60;99.90
16635;DHT22;8431;52.458;9.998;2023-05-10T16:00:07;14.80;99.90
16635;DHT22;8431;52.458;9.998;2023-05-10T16:02:35;14.90;99.90
16635;DHT22;8431;52.458;9.998;2023-05-10T16:05:03;15.00;99.90
16635;DHT22;8431;52.458;9.998;2023-05-10T16:07:30;15.00;99.90